Time;durP1;ratioP1;P1;durP2;ratioP2;P2;SDS_P1;SDS_P2;PMS_P1;PMS_P2;Temp;Humidity;BMP_temperature;BMP_pressure;BME280_temperature;BME280_humidity;BME280_pressure;Samples;Min_cycle;Max_cycle;Signal;HPM_P1;HPM_P2
2022/11/26 00:01:29;;;;;;;90.65;29.95;;;;;;;;;;5105762;28;20062;-50
2022/11/26 00:04:01;;;;;;;102.70;33.25;;;;;;;;;;5101858;28;20697;-50
2022/11/26 00:06:31;;;;;;;105.65;30.48;;;;;;;;;;5101488;28;20048;-53
2022/11/26 00:11:42;;;;;;;98.68;30.55;;;;;;;;;;5107008;28;20044;-52
2022/11/26 00:14:12;;;;;;;98.63;30.38;;;;;;;;;;5105530;28;20052;-53
2022/11/26 00:16:40;;;;;;;99.20;33.58;;;;;;;;;;5106631;28;20051;-53
2022/11/26 00:19:08;;;;;;;91.10;28.20;;;;;;;;;;5104843;28;20052;-49
2022/11/26 00:21:37;;;;;;;98.47;29.77;;;;;;;;;;5106265;28;20052;-50
2022/11/26 00:24:08;;;;;;;94.85;30.70;;;;;;;;;;5107755;28;20059;-49
2022/11/26 00:26:38;;;;;;;101.18;28.80;;;;;;;;;;5104857;28;20056;-51
2022/11/26 00:29:19;;;;;;;91.10;29.90;;;;;;;;;;5117755;28;20044;-50
2022/11/26 00:31:47;;;;;;;99.90;32.35;;;;;;;;;;5105271;28;20134;-53
2022/11/26 00:34:14;;;;;;;96.72;30.55;;;;;;;;;;5104552;28;20052;-50
2022/11/26 00:36:43;;;;;;;103.63;31.73;;;;;;;;;;5104885;28;20063;-52
2022/11/26 00:39:14;;;;;;;107.38;30.13;;;;;;;;;;5120519;28;20047;-49
2022/11/26 00:41:44;;;;;;;127.90;33.08;;;;;;;;;;5110468;28;20431;-51
2022/11/26 00:44:17;;;;;;;115.10;30.83;;;;;;;;;;5114661;28;20056;-53
2022/11/26 00:46:43;;;;;;;113.38;33.28;;;;;;;;;;5117577;27;20109;-53
2022/11/26 00:49:12;;;;;;;109.18;30.63;;;;;;;;;;5102820;28;20496;-51
2022/11/26 00:51:39;;;;;;;106.85;34.45;;;;;;;;;;5102547;28;20533;-51
2022/11/26 00:54:06;;;;;;;94.25;28.88;;;;;;;;;;5114041;28;20058;-49
2022/11/26 00:56:42;;;;;;;103.50;32.55;;;;;;;;;;5106227;27;20048;-51
2022/11/26 00:59:14;;;;;;;98.85;30.08;;;;;;;;;;5105464;28;20052;-49
2022/11/26 01:01:44;;;;;;;86.93;29.40;;;;;;;;;;5115657;27;20052;-50
2022/11/26 01:04:11;;;;;;;100.28;30.60;;;;;;;;;;5110583;28;20036;-49
2022/11/26 01:06:43;;;;;;;98.10;29.98;;;;;;;;;;5121396;28;20055;-49
2022/11/26 01:09:15;;;;;;;97.28;29.65;;;;;;;;;;5115391;27;20054;-49
2022/11/26 01:11:42;;;;;;;97.57;30.05;;;;;;;;;;5103616;28;20051;-50
2022/11/26 01:14:15;;;;;;;99.90;28.48;;;;;;;;;;5121766;28;20565;-49
2022/11/26 01:16:46;;;;;;;103.43;29.13;;;;;;;;;;5107066;28;20048;-51
2022/11/26 01:19:18;;;;;;;95.15;29.08;;;;;;;;;;5113275;28;20048;-49
2022/11/26 01:21:44;;;;;;;94.68;29.02;;;;;;;;;;5113298;28;20487;-49
2022/11/26 01:24:12;;;;;;;86.25;29.65;;;;;;;;;;5099989;28;20056;-51
2022/11/26 01:26:43;;;;;;;90.95;28.27;;;;;;;;;;5106512;28;20099;-53
2022/11/26 01:29:14;;;;;;;81.00;27.15;;;;;;;;;;5112177;28;20052;-53
2022/11/26 01:31:43;;;;;;;83.72;27.02;;;;;;;;;;5101099;28;20058;-52
2022/11/26 01:34:13;;;;;;;84.50;28.35;;;;;;;;;;5110454;27;20066;-49
2022/11/26 01:36:40;;;;;;;80.32;26.58;;;;;;;;;;5102953;28;20056;-53
2022/11/26 01:39:13;;;;;;;84.93;25.73;;;;;;;;;;5117567;28;20044;-49
2022/11/26 01:41:44;;;;;;;86.38;27.38;;;;;;;;;;5111822;28;20480;-49
2022/11/26 01:44:15;;;;;;;81.55;26.80;;;;;;;;;;5111465;28;20048;-53
2022/11/26 01:46:43;;;;;;;78.65;28.45;;;;;;;;;;5111957;28;20055;-50
2022/11/26 01:49:20;;;;;;;75.40;25.88;;;;;;;;;;5099597;28;20052;-49
2022/11/26 01:51:46;;;;;;;84.18;26.08;;;;;;;;;;5104362;27;20058;-50
2022/11/26 01:54:17;;;;;;;77.20;26.70;;;;;;;;;;5108675;28;20388;-52
2022/11/26 01:56:54;;;;;;;83.30;29.02;;;;;;;;;;5105762;28;20104;-52
2022/11/26 01:59:27;;;;;;;82.70;26.17;;;;;;;;;;5119153;28;20073;-51
2022/11/26 02:01:56;;;;;;;83.93;28.70;;;;;;;;;;5111706;28;20135;-49
2022/11/26 02:04:28;;;;;;;72.80;25.58;;;;;;;;;;5113345;28;20130;-51
2022/11/26 02:06:55;;;;;;;77.90;26.70;;;;;;;;;;5102472;28;20162;-50
2022/11/26 02:09:23;;;;;;;77.45;28.65;;;;;;;;;;5107243;27;20054;-50
2022/11/26 02:11:50;;;;;;;75.60;26.08;;;;;;;;;;5109644;28;20075;-53
2022/11/26 02:14:20;;;;;;;76.13;25.48;;;;;;;;;;5118484;28;20063;-52
2022/11/26 02:17:02;;;;;;;70.65;27.10;;;;;;;;;;5102834;28;20112;-50
2022/11/26 02:19:45;;;;;;;71.88;26.60;;;;;;;;;;5118138;28;20412;-53
2022/11/26 02:22:23;;;;;;;78.05;25.75;;;;;;;;;;5098015;28;20062;-51
2022/11/26 02:24:58;;;;;;;71.40;25.63;;;;;;;;;;5117131;28;20051;-52
2022/11/26 02:27:39;;;;;;;67.35;25.92;;;;;;;;;;5111219;28;20040;-52
2022/11/26 02:30:13;;;;;;;66.47;24.77;;;;;;;;;;5097628;28;20044;-53
2022/11/26 02:32:47;;;;;;;71.43;24.98;;;;;;;;;;5117480;28;20048;-53
2022/11/26 02:35:19;;;;;;;80.60;27.38;;;;;;;;;;5111320;28;20353;-50
2022/11/26 02:37:48;;;;;;;66.35;24.00;;;;;;;;;;5104288;27;20043;-51
2022/11/26 02:40:18;;;;;;;63.13;24.75;;;;;;;;;;5098583;28;20044;-51
2022/11/26 02:42:44;;;;;;;62.50;24.50;;;;;;;;;;5103894;28;20059;-50
2022/11/26 02:45:15;;;;;;;61.17;24.02;;;;;;;;;;5105222;28;20056;-53
2022/11/26 02:47:45;;;;;;;62.28;24.52;;;;;;;;;;5096663;28;20420;-52
2022/11/26 02:50:15;;;;;;;72.13;24.13;;;;;;;;;;5105816;28;20044;-53
2022/11/26 02:52:44;;;;;;;66.25;24.40;;;;;;;;;;5098474;28;20325;-52
2022/11/26 02:55:12;;;;;;;61.45;23.00;;;;;;;;;;5102344;28;20097;-53
2022/11/26 02:57:44;;;;;;;58.90;23.77;;;;;;;;;;5108231;28;20063;-50
2022/11/26 03:00:13;;;;;;;58.45;22.27;;;;;;;;;;5102342;28;20055;-50
2022/11/26 03:02:47;;;;;;;65.40;25.33;;;;;;;;;;5104167;28;20170;-51
2022/11/26 03:05:23;;;;;;;60.72;22.27;;;;;;;;;;5109688;28;20044;-49
2022/11/26 03:07:52;;;;;;;62.40;24.25;;;;;;;;;;5102963;28;20051;-53
2022/11/26 03:10:24;;;;;;;60.50;22.27;;;;;;;;;;5113302;28;20040;-50
2022/11/26 03:12:52;;;;;;;70.05;23.95;;;;;;;;;;5110715;28;20073;-51
2022/11/26 03:15:19;;;;;;;65.90;23.75;;;;;;;;;;5103465;28;20051;-53
2022/11/26 03:17:56;;;;;;;61.28;23.48;;;;;;;;;;5104922;28;20052;-53
2022/11/26 03:20:24;;;;;;;59.88;23.33;;;;;;;;;;5099538;28;20048;-53
2022/11/26 03:22:52;;;;;;;57.25;23.10;;;;;;;;;;5111538;28;20051;-53
2022/11/26 03:25:19;;;;;;;66.53;24.00;;;;;;;;;;5117831;28;20066;-51
2022/11/26 03:27:46;;;;;;;58.60;23.55;;;;;;;;;;5104437;28;20052;-50
2022/11/26 03:30:14;;;;;;;61.22;21.90;;;;;;;;;;5099515;28;20067;-50
2022/11/26 03:32:42;;;;;;;63.78;25.55;;;;;;;;;;5111621;28;20512;-53
2022/11/26 03:35:11;;;;;;;65.60;24.58;;;;;;;;;;5116019;28;20061;-51
2022/11/26 03:37:39;;;;;;;73.38;24.48;;;;;;;;;;5100115;28;20056;-53
2022/11/26 03:40:07;;;;;;;61.60;21.88;;;;;;;;;;5097751;28;20044;-51
2022/11/26 03:42:48;;;;;;;63.80;23.60;;;;;;;;;;5100945;28;20048;-53
2022/11/26 03:45:16;;;;;;;66.57;22.85;;;;;;;;;;5115842;28;20057;-52
2022/11/26 03:47:42;;;;;;;57.28;23.25;;;;;;;;;;5096721;28;20048;-52
2022/11/26 03:50:19;;;;;;;65.28;22.73;;;;;;;;;;5111583;28;20054;-53
2022/11/26 03:52:46;;;;;;;63.78;23.50;;;;;;;;;;5097410;28;20109;-52
2022/11/26 03:55:13;;;;;;;63.22;23.65;;;;;;;;;;5107016;28;20048;-53
2022/11/26 03:57:40;;;;;;;68.40;22.98;;;;;;;;;;5100468;28;20063;-50
2022/11/26 04:00:08;;;;;;;66.10;22.85;;;;;;;;;;5104510;28;20048;-50
2022/11/26 04:02:37;;;;;;;59.13;23.17;;;;;;;;;;5107998;28;20067;-53
2022/11/26 04:05:06;;;;;;;55.75;22.60;;;;;;;;;;5102561;28;20108;-51
2022/11/26 04:07:34;;;;;;;58.65;21.75;;;;;;;;;;5105368;28;20052;-52
2022/11/26 04:10:02;;;;;;;64.43;22.77;;;;;;;;;;5111855;28;20467;-52
2022/11/26 04:12:29;;;;;;;68.18;23.83;;;;;;;;;;5113747;28;20138;-54
2022/11/26 04:14:57;;;;;;;65.88;23.23;;;;;;;;;;5100060;28;20062;-52
2022/11/26 04:17:25;;;;;;;62.75;21.80;;;;;;;;;;5097823;28;20126;-54
2022/11/26 04:19:52;;;;;;;91.60;30.90;;;;;;;;;;5098239;28;20132;-54
2022/11/26 04:22:19;;;;;;;65.82;24.35;;;;;;;;;;5108892;28;20055;-53
2022/11/26 04:24:48;;;;;;;92.75;32.05;;;;;;;;;;5103035;28;20044;-54
2022/11/26 04:27:18;;;;;;;67.93;24.63;;;;;;;;;;5116739;28;20055;-53
2022/11/26 04:29:46;;;;;;;59.55;24.13;;;;;;;;;;5096926;28;20055;-54
2022/11/26 04:32:15;;;;;;;63.40;24.63;;;;;;;;;;5100732;28;20051;-54
2022/11/26 04:34:42;;;;;;;62.75;22.67;;;;;;;;;;5115119;28;20055;-50
2022/11/26 04:37:09;;;;;;;58.13;22.42;;;;;;;;;;5113858;28;20380;-54
2022/11/26 04:39:37;;;;;;;58.58;22.17;;;;;;;;;;5105101;28;20046;-53
2022/11/26 04:42:19;;;;;;;59.92;22.80;;;;;;;;;;5118090;28;20070;-53
2022/11/26 04:44:45;;;;;;;61.03;22.65;;;;;;;;;;5110376;28;20058;-52
2022/11/26 04:47:12;;;;;;;59.53;22.48;;;;;;;;;;5119269;28;20066;-50
2022/11/26 04:49:40;;;;;;;56.40;21.42;;;;;;;;;;5108203;28;20456;-53
2022/11/26 04:52:06;;;;;;;59.53;22.85;;;;;;;;;;5113203;28;20044;-53
2022/11/26 04:54:36;;;;;;;58.10;20.50;;;;;;;;;;5108545;28;20048;-51
2022/11/26 04:57:03;;;;;;;55.15;22.45;;;;;;;;;;5110024;28;20143;-53
2022/11/26 04:59:31;;;;;;;58.08;21.27;;;;;;;;;;5110174;27;20056;-52
2022/11/26 05:01:59;;;;;;;63.83;22.98;;;;;;;;;;5105494;28;20147;-53
2022/11/26 05:04:27;;;;;;;52.13;22.90;;;;;;;;;;5102368;28;20052;-52
2022/11/26 05:06:54;;;;;;;57.60;21.85;;;;;;;;;;5109757;28;20376;-52
2022/11/26 05:09:23;;;;;;;59.15;23.23;;;;;;;;;;5122218;28;20055;-51
2022/11/26 05:11:51;;;;;;;63.28;22.88;;;;;;;;;;5122386;28;19966;-53
2022/11/26 05:14:17;;;;;;;54.55;20.98;;;;;;;;;;5110140;28;20067;-53
2022/11/26 05:16:46;;;;;;;49.97;20.90;;;;;;;;;;5113365;27;20043;-54
2022/11/26 05:19:14;;;;;;;61.92;20.58;;;;;;;;;;5122741;28;20047;-54
2022/11/26 05:21:42;;;;;;;63.75;21.38;;;;;;;;;;5128176;27;20169;-54
2022/11/26 05:24:08;;;;;;;54.95;22.17;;;;;;;;;;5101867;28;20075;-54
2022/11/26 05:26:38;;;;;;;51.25;20.27;;;;;;;;;;5115497;28;20071;-53
2022/11/26 05:29:06;;;;;;;57.53;22.05;;;;;;;;;;5100645;27;20048;-51
2022/11/26 05:31:34;;;;;;;55.70;21.73;;;;;;;;;;5112698;28;20043;-54
2022/11/26 05:34:08;;;;;;;61.47;21.50;;;;;;;;;;5118350;28;20047;-53
2022/11/26 05:36:38;;;;;;;53.95;20.48;;;;;;;;;;5101293;28;20125;-54
2022/11/26 05:39:06;;;;;;;59.83;22.50;;;;;;;;;;5101037;28;20105;-54
2022/11/26 05:41:33;;;;;;;51.85;19.15;;;;;;;;;;5103283;28;20052;-54
2022/11/26 05:44:00;;;;;;;56.60;20.27;;;;;;;;;;5117186;28;20047;-54
2022/11/26 05:46:26;;;;;;;56.63;21.13;;;;;;;;;;5118069;28;20066;-54
2022/11/26 05:48:54;;;;;;;52.85;18.85;;;;;;;;;;5116114;28;20130;-50
2022/11/26 05:51:23;;;;;;;47.85;19.63;;;;;;;;;;5102504;28;20117;-52
2022/11/26 05:53:53;;;;;;;49.70;19.58;;;;;;;;;;5107249;27;20051;-54
2022/11/26 05:56:19;;;;;;;47.70;18.33;;;;;;;;;;5109517;28;20077;-50
2022/11/26 05:58:46;;;;;;;50.83;20.38;;;;;;;;;;5106438;28;20052;-51
2022/11/26 06:01:15;;;;;;;50.67;19.75;;;;;;;;;;5110625;28;20113;-52
2022/11/26 06:03:45;;;;;;;51.45;18.27;;;;;;;;;;5102226;28;20497;-50
2022/11/26 06:06:13;;;;;;;47.88;19.67;;;;;;;;;;5104055;28;20101;-54
2022/11/26 06:08:46;;;;;;;47.97;19.55;;;;;;;;;;5116631;28;20044;-54
2022/11/26 06:11:15;;;;;;;44.72;17.80;;;;;;;;;;5110926;28;20048;-54
2022/11/26 06:13:41;;;;;;;50.33;19.15;;;;;;;;;;5107520;28;20051;-54
2022/11/26 06:16:09;;;;;;;44.58;18.73;;;;;;;;;;5107065;28;20047;-54
2022/11/26 06:18:39;;;;;;;53.15;18.83;;;;;;;;;;5115175;28;20052;-53
2022/11/26 06:21:09;;;;;;;55.00;20.40;;;;;;;;;;5111520;28;20108;-50
2022/11/26 06:23:37;;;;;;;52.05;20.65;;;;;;;;;;5106269;28;20054;-51
2022/11/26 06:26:09;;;;;;;56.17;20.33;;;;;;;;;;5115817;28;20047;-52
2022/11/26 06:28:39;;;;;;;49.08;20.17;;;;;;;;;;5103704;28;20067;-53
2022/11/26 06:31:10;;;;;;;56.35;21.95;;;;;;;;;;5106444;28;20120;-52
2022/11/26 06:33:38;;;;;;;51.22;19.58;;;;;;;;;;5100199;28;20113;-54
2022/11/26 06:36:06;;;;;;;53.00;21.27;;;;;;;;;;5105834;27;20106;-54
2022/11/26 06:38:34;;;;;;;58.33;21.20;;;;;;;;;;5119755;28;20059;-53
2022/11/26 06:41:01;;;;;;;51.63;20.40;;;;;;;;;;5104904;28;20044;-53
2022/11/26 06:43:37;;;;;;;57.35;20.42;;;;;;;;;;5116283;28;20049;-53
2022/11/26 06:46:04;;;;;;;56.90;21.75;;;;;;;;;;5107663;28;20047;-53
2022/11/26 06:48:32;;;;;;;55.08;22.40;;;;;;;;;;5107833;28;20062;-52
2022/11/26 06:51:03;;;;;;;52.58;20.88;;;;;;;;;;5103738;28;20055;-52
2022/11/26 06:53:33;;;;;;;54.78;21.13;;;;;;;;;;5101677;28;20103;-49
2022/11/26 06:56:01;;;;;;;56.30;20.42;;;;;;;;;;5121120;28;20062;-52
2022/11/26 06:58:29;;;;;;;53.92;21.30;;;;;;;;;;5116426;28;20135;-51
2022/11/26 07:01:07;;;;;;;48.65;19.88;;;;;;;;;;5112432;28;20052;-50
2022/11/26 07:03:36;;;;;;;54.78;20.77;;;;;;;;;;5103688;28;20035;-51
2022/11/26 07:06:02;;;;;;;51.45;19.70;;;;;;;;;;5111972;28;20055;-51
2022/11/26 07:08:29;;;;;;;48.30;19.35;;;;;;;;;;5109192;28;20726;-52
2022/11/26 07:11:03;;;;;;;54.67;19.95;;;;;;;;;;5120869;28;20463;-50
2022/11/26 07:13:30;;;;;;;52.70;19.80;;;;;;;;;;5116851;28;20082;-50
2022/11/26 07:16:02;;;;;;;54.15;19.70;;;;;;;;;;5105201;28;20044;-50
2022/11/26 07:18:29;;;;;;;50.95;19.80;;;;;;;;;;5104070;28;20056;-50
2022/11/26 07:20:56;;;;;;;56.05;21.00;;;;;;;;;;5112543;28;20043;-54
2022/11/26 07:23:26;;;;;;;48.20;19.60;;;;;;;;;;5100342;28;20059;-53
2022/11/26 07:25:54;;;;;;;46.70;19.20;;;;;;;;;;5110638;28;20052;-52
2022/11/26 07:28:27;;;;;;;48.45;19.65;;;;;;;;;;5108898;28;20441;-50
2022/11/26 07:30:57;;;;;;;51.58;20.63;;;;;;;;;;5112726;28;20043;-50
2022/11/26 07:33:27;;;;;;;47.85;20.10;;;;;;;;;;5102974;28;20097;-51
2022/11/26 07:35:53;;;;;;;48.20;19.40;;;;;;;;;;5102383;28;20067;-50
2022/11/26 07:38:20;;;;;;;50.55;19.38;;;;;;;;;;5101353;28;20056;-53
2022/11/26 07:40:50;;;;;;;54.47;21.83;;;;;;;;;;5099113;28;20404;-54
2022/11/26 07:43:17;;;;;;;53.75;19.67;;;;;;;;;;5114114;28;20059;-51
2022/11/26 07:45:44;;;;;;;53.00;20.90;;;;;;;;;;5112595;28;20048;-53
2022/11/26 07:48:12;;;;;;;58.40;20.05;;;;;;;;;;5109836;28;20051;-54
2022/11/26 07:50:42;;;;;;;58.67;22.10;;;;;;;;;;5111244;28;20036;-54
2022/11/26 07:53:12;;;;;;;55.90;21.88;;;;;;;;;;5103909;28;20054;-54
2022/11/26 07:55:40;;;;;;;50.00;20.02;;;;;;;;;;5107077;28;20105;-54
2022/11/26 07:58:06;;;;;;;48.47;18.92;;;;;;;;;;5104201;28;20048;-52
2022/11/26 08:00:36;;;;;;;50.38;20.83;;;;;;;;;;5114215;28;20040;-53
2022/11/26 08:03:06;;;;;;;48.03;21.05;;;;;;;;;;5105347;28;20048;-52
2022/11/26 08:05:33;;;;;;;49.10;20.63;;;;;;;;;;5105040;28;20043;-51
2022/11/26 08:08:06;;;;;;;51.28;20.00;;;;;;;;;;5105174;28;20063;-50
2022/11/26 08:10:36;;;;;;;51.05;20.80;;;;;;;;;;5112757;28;20040;-50
2022/11/26 08:13:07;;;;;;;60.65;23.80;;;;;;;;;;5116878;28;20097;-51
2022/11/26 08:15:36;;;;;;;56.13;22.55;;;;;;;;;;5108519;28;20052;-50
2022/11/26 08:18:07;;;;;;;59.38;25.42;;;;;;;;;;5097764;28;20530;-53
2022/11/26 08:20:33;;;;;;;58.10;22.65;;;;;;;;;;5097837;28;20109;-54
2022/11/26 08:22:59;;;;;;;48.03;21.55;;;;;;;;;;5109769;28;20060;-53
2022/11/26 08:25:38;;;;;;;52.97;21.92;;;;;;;;;;5097458;28;20052;-54
2022/11/26 08:28:05;;;;;;;54.63;21.65;;;;;;;;;;5116139;28;20055;-53
2022/11/26 08:30:31;;;;;;;49.33;21.80;;;;;;;;;;5108228;28;20052;-50
2022/11/26 08:32:58;;;;;;;49.75;20.83;;;;;;;;;;5113398;28;20075;-53
2022/11/26 08:35:26;;;;;;;56.08;21.52;;;;;;;;;;5100837;28;20052;-50
2022/11/26 08:37:54;;;;;;;59.90;23.92;;;;;;;;;;5118658;27;20490;-50
2022/11/26 08:40:22;;;;;;;71.28;28.13;;;;;;;;;;5110428;28;20044;-51
2022/11/26 08:43:05;;;;;;;88.90;31.30;;;;;;;;;;5118267;27;20146;-54
2022/11/26 08:45:31;;;;;;;92.32;33.70;;;;;;;;;;5115325;28;20198;-51
2022/11/26 08:47:58;;;;;;;72.68;27.75;;;;;;;;;;5105740;28;20062;-50
2022/11/26 08:50:25;;;;;;;62.80;26.55;;;;;;;;;;5107563;28;20062;-50
2022/11/26 08:52:51;;;;;;;89.00;31.55;;;;;;;;;;5109317;28;20052;-51
2022/11/26 08:55:18;;;;;;;70.35;28.25;;;;;;;;;;5110318;28;20127;-53
2022/11/26 08:57:46;;;;;;;70.15;28.92;;;;;;;;;;5110808;28;20078;-54
2022/11/26 09:00:23;;;;;;;66.53;26.30;;;;;;;;;;5112897;28;20040;-50
2022/11/26 09:02:49;;;;;;;68.88;25.55;;;;;;;;;;5109941;28;20083;-50
2022/11/26 09:05:29;;;;;;;62.25;25.52;;;;;;;;;;5112364;28;20052;-51
2022/11/26 09:07:56;;;;;;;63.60;24.75;;;;;;;;;;5112269;28;20047;-51
2022/11/26 09:10:24;;;;;;;58.75;24.95;;;;;;;;;;5112030;28;20054;-53
2022/11/26 09:12:52;;;;;;;64.80;24.60;;;;;;;;;;5120055;28;20055;-54
2022/11/26 09:15:24;;;;;;;61.63;24.50;;;;;;;;;;5100479;28;20043;-54
2022/11/26 09:17:51;;;;;;;62.65;24.13;;;;;;;;;;5103222;28;20055;-51
2022/11/26 09:20:19;;;;;;;56.17;21.77;;;;;;;;;;5117632;28;20066;-53
2022/11/26 09:22:46;;;;;;;55.55;22.13;;;;;;;;;;5119252;28;20484;-51
2022/11/26 09:25:13;;;;;;;49.28;21.10;;;;;;;;;;5118216;28;20070;-51
2022/11/26 09:27:40;;;;;;;53.08;20.65;;;;;;;;;;5119154;28;20056;-54
2022/11/26 09:30:07;;;;;;;46.17;20.17;;;;;;;;;;5120270;28;20051;-53
2022/11/26 09:32:45;;;;;;;58.10;20.20;;;;;;;;;;5108861;28;20051;-50
2022/11/26 09:35:13;;;;;;;53.20;21.77;;;;;;;;;;5114511;28;20048;-54
2022/11/26 09:37:40;;;;;;;47.92;20.58;;;;;;;;;;5111281;28;20491;-50
2022/11/26 09:40:09;;;;;;;45.17;19.52;;;;;;;;;;5111337;28;20048;-54
2022/11/26 09:42:44;;;;;;;45.55;19.33;;;;;;;;;;5115943;28;20040;-49
2022/11/26 09:45:21;;;;;;;45.77;20.07;;;;;;;;;;5111770;28;20082;-51
2022/11/26 09:47:52;;;;;;;48.53;21.23;;;;;;;;;;5111234;28;20494;-50
2022/11/26 09:50:31;;;;;;;45.90;17.92;;;;;;;;;;5114006;28;20502;-53
2022/11/26 09:53:01;;;;;;;44.60;18.77;;;;;;;;;;5111709;28;20050;-53
2022/11/26 09:55:30;;;;;;;41.65;19.02;;;;;;;;;;5115891;28;20047;-52
2022/11/26 09:58:06;;;;;;;43.78;19.30;;;;;;;;;;5118977;28;20055;-54
2022/11/26 10:00:37;;;;;;;41.50;18.42;;;;;;;;;;5113388;28;20062;-53
2022/11/26 10:03:19;;;;;;;42.85;18.88;;;;;;;;;;5113061;28;20047;-51
2022/11/26 10:05:50;;;;;;;42.15;19.35;;;;;;;;;;5111501;28;20044;-51
2022/11/26 10:08:34;;;;;;;42.05;19.90;;;;;;;;;;5113628;28;20078;-49
2022/11/26 10:11:05;;;;;;;55.63;21.15;;;;;;;;;;5114947;28;20073;-50
2022/11/26 10:13:40;;;;;;;45.50;19.40;;;;;;;;;;5116968;28;20421;-50
2022/11/26 10:16:11;;;;;;;50.35;19.60;;;;;;;;;;5115635;28;20430;-52
2022/11/26 10:18:47;;;;;;;43.40;20.10;;;;;;;;;;5116461;28;20463;-50
2022/11/26 10:21:19;;;;;;;41.92;20.20;;;;;;;;;;5105468;28;20380;-50
2022/11/26 10:23:57;;;;;;;41.53;18.77;;;;;;;;;;5114439;28;20105;-51
2022/11/26 10:26:34;;;;;;;45.53;21.17;;;;;;;;;;5109526;28;20055;-52
2022/11/26 10:29:15;;;;;;;41.55;19.55;;;;;;;;;;5105203;28;20051;-50
2022/11/26 10:31:45;;;;;;;36.85;18.98;;;;;;;;;;5107295;28;20051;-49
2022/11/26 10:34:16;;;;;;;39.15;18.70;;;;;;;;;;5112855;28;20062;-50
2022/11/26 10:36:45;;;;;;;37.80;18.42;;;;;;;;;;5111171;28;20044;-52
2022/11/26 10:39:12;;;;;;;39.78;18.15;;;;;;;;;;5107434;28;20047;-50
2022/11/26 10:41:40;;;;;;;38.00;18.08;;;;;;;;;;5107467;28;20048;-50
2022/11/26 10:44:24;;;;;;;42.78;18.73;;;;;;;;;;5113504;28;20039;-50
2022/11/26 10:46:52;;;;;;;41.25;17.73;;;;;;;;;;5111361;28;20121;-50
2022/11/26 10:49:34;;;;;;;40.55;18.33;;;;;;;;;;5106116;28;20064;-50
2022/11/26 10:52:02;;;;;;;44.10;18.48;;;;;;;;;;5103561;28;20055;-49
2022/11/26 10:54:31;;;;;;;38.95;17.33;;;;;;;;;;5109245;28;20047;-50
2022/11/26 10:57:12;;;;;;;39.08;16.70;;;;;;;;;;5103401;28;20040;-50
2022/11/26 10:59:47;;;;;;;35.72;16.80;;;;;;;;;;5106595;28;20048;-50
2022/11/26 11:02:23;;;;;;;32.72;17.48;;;;;;;;;;5107017;28;20052;-50
2022/11/26 11:04:55;;;;;;;39.90;16.30;;;;;;;;;;5104665;27;20081;-52
2022/11/26 11:07:30;;;;;;;40.33;18.60;;;;;;;;;;5100718;28;20052;-50
2022/11/26 11:10:01;;;;;;;37.93;17.20;;;;;;;;;;5112044;28;20105;-50
2022/11/26 11:12:31;;;;;;;33.58;16.23;;;;;;;;;;5115777;28;20040;-53
2022/11/26 11:15:15;;;;;;;36.80;15.43;;;;;;;;;;5105560;28;20447;-53
2022/11/26 11:17:42;;;;;;;34.90;16.90;;;;;;;;;;5104281;28;20417;-51
2022/11/26 11:20:26;;;;;;;40.42;17.70;;;;;;;;;;5104898;28;20051;-54
2022/11/26 11:22:57;;;;;;;37.97;16.63;;;;;;;;;;5109010;28;20060;-51
2022/11/26 11:25:26;;;;;;;37.97;15.40;;;;;;;;;;5105696;28;20059;-51
2022/11/26 11:28:00;;;;;;;43.30;16.13;;;;;;;;;;5113734;27;20051;-54
2022/11/26 11:30:29;;;;;;;35.72;16.23;;;;;;;;;;5107402;28;20048;-50
2022/11/26 11:33:10;;;;;;;35.78;15.40;;;;;;;;;;5109162;28;20067;-49
2022/11/26 11:35:56;;;;;;;42.33;16.02;;;;;;;;;;5105394;28;20059;-51
2022/11/26 11:38:23;;;;;;;;;;;;;;;;;;5096836;28;20052;-48
2022/11/26 11:40:51;;;;;;;38.78;15.98;;;;;;;;;;5109307;28;19988;-48
2022/11/26 11:43:22;;;;;;;40.55;16.58;;;;;;;;;;5101526;28;20051;-49
2022/11/26 11:45:55;;;;;;;34.15;14.95;;;;;;;;;;5097085;28;20073;-52
2022/11/26 11:48:26;;;;;;;29.17;15.15;;;;;;;;;;5092992;28;20062;-50
2022/11/26 11:50:58;;;;;;;34.08;16.23;;;;;;;;;;5097542;28;20056;-51
2022/11/26 11:53:33;;;;;;;35.45;17.45;;;;;;;;;;5098673;28;20044;-51
2022/11/26 11:56:11;;;;;;;35.90;16.60;;;;;;;;;;5098052;28;20052;-51
2022/11/26 11:58:47;;;;;;;37.42;16.95;;;;;;;;;;5101310;28;20154;-51
2022/11/26 12:01:15;;;;;;;;;;;;;;;;;;5095583;28;20144;-53
2022/11/26 12:45:51;;;;;;;33.30;15.68;;;;;;;4.25;85.13;102105.34;5105029;27;20414;-62
2022/11/26 12:48:38;;;;;;;30.65;14.02;;;;;;;4.22;85.21;102105.25;5089557;28;20055;-52
2022/11/26 12:51:17;;;;;;;27.48;13.10;;;;;;;4.22;85.35;102097.53;5084764;28;20358;-53
2022/11/26 12:53:49;;;;;;;28.50;14.18;;;;;;;4.21;85.36;102100.91;5083221;28;20044;-53
2022/11/26 12:56:23;;;;;;;30.38;14.02;;;;;;;4.23;85.91;102108.69;5086460;28;20392;-51
2022/11/26 12:58:58;;;;;;;30.00;14.00;;;;;;;4.25;85.72;102107.91;5087085;28;20044;-54
2022/11/26 13:01:27;;;;;;;30.70;13.33;;;;;;;4.27;85.48;102114.00;5090572;28;20052;-51
2022/11/26 13:03:54;;;;;;;30.60;14.68;;;;;;;4.28;85.43;102110.59;5087489;28;20705;-50
2022/11/26 13:06:38;;;;;;;28.25;14.13;;;;;;;4.30;85.80;102111.53;5079415;28;20476;-54
2022/11/26 13:09:16;;;;;;;25.42;12.55;;;;;;;4.31;85.54;102112.41;5077289;28;20404;-49
2022/11/26 13:11:52;;;;;;;25.35;12.77;;;;;;;4.32;85.27;102119.31;5088821;28;20057;-53
2022/11/26 13:14:34;;;;;;;31.27;12.40;;;;;;;4.31;85.41;102112.41;5086587;28;20083;-53
2022/11/26 13:17:09;;;;;;;30.33;13.02;;;;;;;4.27;85.35;102114.00;5083214;28;20060;-52
2022/11/26 13:19:40;;;;;;;25.42;12.63;;;;;;;4.25;85.20;102120.75;5079579;28;20496;-55
2022/11/26 13:22:35;;;;;;;27.30;13.35;;;;;;;4.25;85.01;102128.47;5079488;28;20052;-51
2022/11/26 13:25:26;;;;;;;28.20;13.40;;;;;;;4.26;85.15;102125.06;5077083;28;20059;-51
2022/11/26 13:28:04;;;;;;;27.67;11.73;;;;;;;4.25;85.03;102122.44;5068751;28;20439;-52
2022/11/26 13:30:42;;;;;;;19.65;11.38;;;;;;;4.23;85.05;102124.97;5071989;28;20055;-55
2022/11/26 13:33:51;;;;;;;25.08;11.52;;;;;;;4.22;85.50;102117.19;5087731;28;20048;-54
2022/11/26 13:36:39;;;;;;;24.35;11.60;;;;;;;4.20;85.77;102114.56;5077436;28;20048;-57
2022/11/26 13:39:50;;;;;;;21.95;10.77;;;;;;;4.17;85.21;102122.16;5071306;28;20591;-56
2022/11/26 13:42:38;;;;;;;21.10;11.13;;;;;;;4.14;85.97;102124.56;5070044;28;20064;-54
2022/11/26 13:45:39;;;;;;;29.23;13.63;;;;;;;4.11;85.51;102124.44;5075997;28;20056;-57
2022/11/26 13:48:11;;;;;;;24.25;12.35;;;;;;;4.08;85.97;102124.31;5072523;28;20044;-56
2022/11/26 13:50:44;;;;;;;26.50;12.77;;;;;;;4.06;85.79;102121.69;5074531;28;20048;-56
2022/11/26 13:53:21;;;;;;;22.20;11.88;;;;;;;4.04;85.74;102127.59;5073069;28;20052;-56
2022/11/26 13:55:52;;;;;;;30.00;12.68;;;;;;;4.01;86.12;102127.47;5074072;28;20044;-57
2022/11/26 13:58:23;;;;;;;26.48;12.52;;;;;;;3.99;86.44;102129.09;5073514;28;20067;-57
2022/11/26 14:00:51;;;;;;;23.05;11.05;;;;;;;3.99;86.13;102134.22;5069343;28;20056;-57
2022/11/26 14:03:45;;;;;;;28.15;12.20;;;;;;;3.97;86.08;102130.72;5067081;28;20059;-53
2022/11/26 14:06:26;;;;;;;28.15;12.35;;;;;;;3.97;86.62;102139.28;5074458;28;20048;-57
2022/11/26 14:08:56;;;;;;;26.20;12.60;;;;;;;3.96;86.72;102139.22;5069868;28;20059;-57
2022/11/26 14:11:55;;;;;;;29.02;11.93;;;;;;;3.94;86.71;102140.84;5074070;28;20484;-56
2022/11/26 14:14:35;;;;;;;26.77;12.60;;;;;;;3.93;86.94;102146.81;5068364;28;20056;-56
2022/11/26 14:17:34;;;;;;;25.52;13.93;;;;;;;3.91;86.68;102146.75;5074058;28;20060;-56
2022/11/26 14:20:10;;;;;;;29.60;12.65;;;;;;;3.91;86.26;102151.00;5073717;28;20051;-56
2022/11/26 14:22:40;;;;;;;23.17;10.68;;;;;;;3.90;86.09;102149.25;5069231;28;20121;-55
2022/11/26 14:25:12;;;;;;;22.90;11.55;;;;;;;3.89;86.66;102150.06;5073949;28;20049;-54
2022/11/26 14:27:43;;;;;;;25.63;12.25;;;;;;;3.87;86.40;102149.13;5072029;28;20551;-53
2022/11/26 14:30:25;;;;;;;27.73;13.68;;;;;;;3.82;86.08;102155.75;5074306;28;20063;-55
2022/11/26 14:33:18;;;;;;;26.60;11.73;;;;;;;3.77;86.22;102156.44;5073959;28;20049;-56
2022/11/26 14:35:57;;;;;;;24.38;13.20;;;;;;;3.76;86.38;102162.38;5068788;28;20067;-56
2022/11/26 14:38:30;;;;;;;25.77;12.93;;;;;;;3.73;86.70;102164.81;5073624;28;20052;-56
2022/11/26 14:41:00;;;;;;;32.10;13.55;;;;;;;3.72;86.75;102165.63;5072277;28;20125;-57
2022/11/26 14:43:29;;;;;;;23.33;13.52;;;;;;;3.73;86.88;102176.75;5066926;28;20480;-55
2022/11/26 14:46:09;;;;;;;28.83;14.30;;;;;;;3.72;86.63;102178.44;5073200;28;20044;-54
2022/11/26 14:48:43;;;;;;;28.42;12.55;;;;;;;3.71;86.86;102174.13;5066037;28;20056;-53
2022/11/26 14:51:10;;;;;;;26.25;12.88;;;;;;;3.70;86.79;102177.50;5070767;28;20056;-56
2022/11/26 14:53:57;;;;;;;26.25;11.48;;;;;;;3.70;86.56;102182.63;5075346;28;20059;-57